createdAt,value
2018-05-29T00:00:00.486Z,0
2018-05-29T00:01:01.067Z,0
2018-05-29T00:02:01.649Z,0
2018-05-29T00:03:02.281Z,0
2018-05-29T00:04:02.861Z,0
2018-05-29T00:05:03.441Z,0
2018-05-29T00:06:04.024Z,0
2018-05-29T00:07:04.599Z,0
2018-05-29T00:08:05.180Z,0
2018-05-29T00:09:05.760Z,0
2018-05-29T00:10:06.341Z,0
2018-05-29T00:11:06.921Z,0
2018-05-29T00:12:07.500Z,0
2018-05-29T00:13:08.080Z,0
2018-05-29T00:14:08.660Z,0
2018-05-29T00:15:09.239Z,0
2018-05-29T00:16:09.817Z,0
2018-05-29T00:17:10.396Z,0
2018-05-29T00:18:11.026Z,0
2018-05-29T00:19:11.605Z,0
2018-05-29T00:20:12.185Z,0
2018-05-29T00:21:12.764Z,0
2018-05-29T00:22:13.393Z,0
2018-05-29T00:23:13.973Z,0
2018-05-29T00:24:14.553Z,0
2018-05-29T00:25:15.134Z,0
2018-05-29T00:26:15.713Z,0
2018-05-29T00:27:16.448Z,0
2018-05-29T00:28:17.023Z,0
2018-05-29T00:29:17.602Z,0
2018-05-29T00:30:18.183Z,0
2018-05-29T00:31:18.765Z,0
2018-05-29T00:32:19.346Z,0
2018-05-29T00:33:19.927Z,0
2018-05-29T00:34:20.505Z,0
2018-05-29T00:35:21.083Z,0
2018-05-29T00:36:21.664Z,0
2018-05-29T00:37:22.240Z,0
2018-05-29T00:38:22.819Z,0
2018-05-29T00:39:23.449Z,0
2018-05-29T00:40:24.032Z,0
2018-05-29T00:41:24.609Z,0
2018-05-29T00:42:25.189Z,0
2018-05-29T00:43:25.808Z,0
2018-05-29T00:44:26.435Z,0
2018-05-29T00:45:27.015Z,0
2018-05-29T00:46:27.593Z,0
2018-05-29T00:47:28.223Z,0
2018-05-29T00:48:28.802Z,0
2018-05-29T00:49:29.379Z,0
2018-05-29T00:50:29.957Z,0
2018-05-29T00:51:30.536Z,0
2018-05-29T00:52:31.117Z,0
2018-05-29T00:53:31.698Z,0
2018-05-29T00:54:32.278Z,0
2018-05-29T00:55:32.857Z,0
2018-05-29T00:56:33.435Z,0
2018-05-29T00:57:34.016Z,0
2018-05-29T00:58:34.591Z,0
2018-05-29T00:59:35.220Z,0
2018-05-29T01:00:35.849Z,0
2018-05-29T01:01:36.478Z,0
2018-05-29T01:02:37.060Z,0
2018-05-29T01:03:37.640Z,0
2018-05-29T01:04:38.221Z,0
2018-05-29T01:05:38.797Z,0
2018-05-29T01:06:39.426Z,0
2018-05-29T01:07:40.008Z,0
2018-05-29T01:08:40.592Z,0
2018-05-29T01:09:41.168Z,0
2018-05-29T01:10:41.746Z,0
2018-05-29T01:11:42.326Z,0
2018-05-29T01:12:42.960Z,0
2018-05-29T01:13:43.492Z,0
2018-05-29T01:14:44.066Z,0
2018-05-29T01:15:44.645Z,0
2018-05-29T01:16:45.227Z,0
2018-05-29T01:17:45.804Z,0
2018-05-29T01:18:46.431Z,0
2018-05-29T01:19:47.018Z,0
2018-05-29T01:20:47.597Z,0
2018-05-29T01:21:48.225Z,0
2018-05-29T01:22:48.853Z,0
2018-05-29T01:23:49.431Z,0
2018-05-29T01:24:50.013Z,0
2018-05-29T01:25:50.628Z,0
2018-05-29T01:26:51.208Z,0
2018-05-29T01:27:51.785Z,0
2018-05-29T01:28:52.364Z,0
2018-05-29T01:29:52.941Z,0
2018-05-29T01:30:53.525Z,0
2018-05-29T01:31:54.098Z,0
2018-05-29T01:32:54.677Z,0
2018-05-29T01:33:55.256Z,0
2018-05-29T01:34:55.833Z,0
2018-05-29T01:35:56.414Z,0
2018-05-29T01:36:57.087Z,0
2018-05-29T01:37:57.713Z,0
2018-05-29T01:38:58.296Z,0
2018-05-29T01:39:58.874Z,0
2018-05-29T01:40:59.454Z,0
2018-05-29T01:42:00.039Z,0
2018-05-29T01:43:00.661Z,0
2018-05-29T01:44:01.242Z,0
2018-05-29T01:45:01.824Z,0
2018-05-29T01:46:02.446Z,0
2018-05-29T01:47:03.028Z,0
2018-05-29T01:48:03.600Z,0
2018-05-29T01:49:04.185Z,0
2018-05-29T01:50:04.799Z,0
2018-05-29T01:51:05.378Z,0
2018-05-29T01:52:05.957Z,0
2018-05-29T01:53:06.589Z,0
2018-05-29T01:54:07.167Z,0
2018-05-29T01:55:07.745Z,0
2018-05-29T01:56:08.325Z,0
2018-05-29T01:57:08.900Z,0
2018-05-29T01:58:09.478Z,0
2018-05-29T01:59:10.057Z,0
2018-05-29T02:00:10.634Z,0
2018-05-29T02:01:11.214Z,0
2018-05-29T02:02:11.794Z,0
2018-05-29T02:03:12.423Z,0
2018-05-29T02:04:13.050Z,0
2018-05-29T02:05:13.630Z,0
2018-05-29T02:06:14.210Z,0
2018-05-29T02:07:14.792Z,0
2018-05-29T02:08:15.370Z,0
2018-05-29T02:09:15.948Z,0
2018-05-29T02:10:16.528Z,0
2018-05-29T02:11:17.104Z,0
2018-05-29T02:12:17.683Z,0
2018-05-29T02:13:18.261Z,0
2018-05-29T02:14:18.841Z,0
2018-05-29T02:15:19.419Z,0
2018-05-29T02:16:19.999Z,0
2018-05-29T02:17:20.577Z,0
2018-05-29T02:18:21.210Z,0
2018-05-29T02:19:21.838Z,0
2018-05-29T02:20:22.465Z,0
2018-05-29T02:21:23.044Z,0
2018-05-29T02:22:23.624Z,0
2018-05-29T02:23:24.204Z,0
2018-05-29T02:24:24.832Z,0
2018-05-29T02:25:25.414Z,0
2018-05-29T02:26:25.992Z,0
2018-05-29T02:27:26.568Z,0
2018-05-29T02:28:27.149Z,0
2018-05-29T02:29:27.732Z,0
2018-05-29T02:30:28.309Z,0
2018-05-29T02:31:28.889Z,0
2018-05-29T02:32:29.468Z,0
2018-05-29T02:33:30.045Z,0
2018-05-29T02:34:30.629Z,0
2018-05-29T02:35:31.251Z,0
2018-05-29T02:36:31.885Z,0
2018-05-29T02:37:32.503Z,0
2018-05-29T02:38:33.081Z,0
2018-05-29T02:39:33.717Z,0
2018-05-29T02:40:34.335Z,0
2018-05-29T02:41:35.003Z,0
2018-05-29T02:42:35.581Z,0
2018-05-29T02:43:36.160Z,0
2018-05-29T02:44:36.748Z,0
2018-05-29T02:45:37.317Z,0
2018-05-29T02:46:37.896Z,0
2018-05-29T02:47:38.483Z,0
2018-05-29T02:48:39.060Z,0
2018-05-29T02:49:39.637Z,0
2018-05-29T02:50:40.215Z,0
2018-05-29T02:51:40.843Z,0
2018-05-29T02:52:41.423Z,0
2018-05-29T02:53:42.001Z,0
2018-05-29T02:54:42.583Z,0
2018-05-29T02:55:43.209Z,0
2018-05-29T02:56:43.789Z,0
2018-05-29T02:57:44.421Z,0
2018-05-29T02:58:45.040Z,0
2018-05-29T02:59:45.620Z,0
2018-05-29T03:00:46.241Z,0
2018-05-29T03:01:46.821Z,0
2018-05-29T03:02:47.401Z,0
2018-05-29T03:03:47.981Z,0
2018-05-29T03:04:48.561Z,0
2018-05-29T03:05:49.140Z,0
2018-05-29T03:06:49.718Z,0
2018-05-29T03:07:50.295Z,0
2018-05-29T03:08:50.875Z,0
2018-05-29T03:09:51.495Z,0
2018-05-29T03:10:52.126Z,0
2018-05-29T03:11:52.705Z,0
2018-05-29T03:12:53.281Z,0
2018-05-29T03:13:53.860Z,0
2018-05-29T03:14:54.488Z,0
2018-05-29T03:15:55.067Z,0
2018-05-29T03:16:55.698Z,0
2018-05-29T03:17:56.276Z,0
2018-05-29T03:18:56.854Z,0
2018-05-29T03:19:57.431Z,0
2018-05-29T03:20:58.071Z,0
2018-05-29T03:21:58.588Z,0
2018-05-29T03:22:59.168Z,0
2018-05-29T03:23:59.749Z,0
2018-05-29T03:25:00.329Z,0
2018-05-29T03:26:00.908Z,0
2018-05-29T03:27:01.537Z,0
2018-05-29T03:28:02.118Z,0
2018-05-29T03:29:02.699Z,0
2018-05-29T03:30:03.275Z,0
2018-05-29T03:31:03.854Z,0
2018-05-29T03:32:04.432Z,0
2018-05-29T03:33:05.060Z,0
2018-05-29T03:34:05.639Z,0
2018-05-29T03:35:06.268Z,0
2018-05-29T03:36:06.847Z,0
2018-05-29T03:37:07.425Z,0
2018-05-29T03:38:08.003Z,0
2018-05-29T03:39:08.583Z,0
2018-05-29T03:40:09.161Z,0
2018-05-29T03:41:09.740Z,0
2018-05-29T03:42:10.369Z,0
2018-05-29T03:43:10.948Z,0
2018-05-29T03:44:11.525Z,0
2018-05-29T03:45:12.102Z,0
2018-05-29T03:46:12.678Z,0
2018-05-29T03:47:13.254Z,0
2018-05-29T03:48:13.884Z,0
2018-05-29T03:49:14.462Z,0
2018-05-29T03:50:15.041Z,0
2018-05-29T03:51:15.667Z,0
2018-05-29T03:52:16.399Z,0
2018-05-29T03:53:16.984Z,0
2018-05-29T03:54:17.560Z,0
2018-05-29T03:55:18.142Z,0
2018-05-29T03:56:18.719Z,0
2018-05-29T03:57:19.297Z,0
2018-05-29T03:58:19.876Z,0
2018-05-29T03:59:20.460Z,0
2018-05-29T04:00:21.079Z,0
2018-05-29T04:01:21.660Z,0
2018-05-29T04:02:22.239Z,0
2018-05-29T04:03:22.817Z,0
2018-05-29T04:04:23.447Z,0
2018-05-29T04:05:24.026Z,0
2018-05-29T04:06:24.606Z,0
2018-05-29T04:07:25.237Z,0
2018-05-29T04:08:25.859Z,0
2018-05-29T04:09:26.537Z,0
2018-05-29T04:10:27.067Z,0
2018-05-29T04:11:27.644Z,0
2018-05-29T04:12:28.224Z,0
2018-05-29T04:13:28.807Z,0
2018-05-29T04:14:29.381Z,0
2018-05-29T04:15:29.959Z,0
2018-05-29T04:16:30.538Z,0
2018-05-29T04:17:31.116Z,0
2018-05-29T04:18:31.695Z,0
2018-05-29T04:19:32.274Z,0
2018-05-29T04:20:32.854Z,0
2018-05-29T04:21:33.432Z,0
2018-05-29T04:22:34.014Z,0
2018-05-29T04:23:34.593Z,0
2018-05-29T04:24:35.166Z,0
2018-05-29T04:25:35.793Z,0
2018-05-29T04:26:36.424Z,0
2018-05-29T04:27:37.001Z,0
2018-05-29T04:28:37.581Z,0
2018-05-29T04:29:38.197Z,0
2018-05-29T04:30:38.828Z,0
2018-05-29T04:31:39.403Z,0
2018-05-29T04:32:39.983Z,0
2018-05-29T04:33:40.565Z,0
2018-05-29T04:34:41.143Z,0
2018-05-29T04:35:41.723Z,0
2018-05-29T04:36:42.301Z,0
2018-05-29T04:37:42.879Z,0
2018-05-29T04:38:43.457Z,0
2018-05-29T04:39:44.041Z,0
2018-05-29T04:40:44.666Z,0
2018-05-29T04:41:45.249Z,0
2018-05-29T04:42:45.872Z,0
2018-05-29T04:43:46.548Z,0
2018-05-29T04:44:47.073Z,0
2018-05-29T04:45:47.653Z,0
2018-05-29T04:46:48.228Z,0
2018-05-29T04:47:48.860Z,0
2018-05-29T04:48:49.441Z,0
2018-05-29T04:49:50.022Z,0
2018-05-29T04:50:50.601Z,0
2018-05-29T04:51:51.180Z,0
2018-05-29T04:52:51.757Z,0
2018-05-29T04:53:52.334Z,0
2018-05-29T04:54:52.912Z,0
2018-05-29T04:55:53.488Z,0
2018-05-29T04:56:54.067Z,0
2018-05-29T04:57:54.644Z,0
2018-05-29T04:58:55.273Z,0
2018-05-29T04:59:55.891Z,0
2018-05-29T05:00:56.433Z,0
2018-05-29T05:01:57.011Z,0
2018-05-29T05:02:57.639Z,0
2018-05-29T05:03:58.268Z,0
2018-05-29T05:04:58.846Z,0
2018-05-29T05:05:59.424Z,0
2018-05-29T05:07:00.017Z,0
2018-05-29T05:08:00.621Z,0
2018-05-29T05:09:01.226Z,0
2018-05-29T05:10:01.778Z,0
2018-05-29T05:11:02.355Z,0
2018-05-29T05:12:02.933Z,0
2018-05-29T05:13:03.512Z,0
2018-05-29T05:14:04.092Z,0
2018-05-29T05:15:04.720Z,0
2018-05-29T05:16:05.350Z,0
2018-05-29T05:17:05.933Z,0
2018-05-29T05:18:06.509Z,0
2018-05-29T05:19:07.087Z,0
2018-05-29T05:20:07.678Z,0
2018-05-29T05:21:08.244Z,0
2018-05-29T05:22:08.872Z,0
2018-05-29T05:23:09.450Z,0
2018-05-29T05:24:10.032Z,0
2018-05-29T05:25:10.651Z,0
2018-05-29T05:26:11.229Z,0
2018-05-29T05:27:11.857Z,0
2018-05-29T05:28:12.433Z,0
2018-05-29T05:29:13.010Z,0
2018-05-29T05:30:13.589Z,0
2018-05-29T05:31:14.266Z,0
2018-05-29T05:32:14.895Z,0
2018-05-29T05:33:15.475Z,0
2018-05-29T05:34:16.056Z,0
2018-05-29T05:35:16.839Z,0
2018-05-29T05:36:17.462Z,0
2018-05-29T05:37:18.038Z,0
2018-05-29T05:38:18.618Z,0
2018-05-29T05:39:19.196Z,0
2018-05-29T05:40:19.777Z,0
2018-05-29T05:41:20.356Z,0
2018-05-29T05:42:20.935Z,0
2018-05-29T05:43:21.516Z,0
2018-05-29T05:44:22.095Z,0
2018-05-29T05:45:22.674Z,0
2018-05-29T05:46:23.252Z,0
2018-05-29T05:47:23.830Z,0
2018-05-29T05:48:24.409Z,0
2018-05-29T05:49:25.039Z,0
2018-05-29T05:50:25.617Z,0
2018-05-29T05:51:26.246Z,0
2018-05-29T05:52:26.872Z,0
2018-05-29T05:53:27.455Z,0
2018-05-29T05:54:28.075Z,0
2018-05-29T05:55:28.654Z,0
2018-05-29T05:56:29.232Z,0
2018-05-29T05:57:29.810Z,0
2018-05-29T05:58:30.479Z,0
2018-05-29T05:59:31.027Z,0
2018-05-29T06:00:31.599Z,0
2018-05-29T06:01:32.176Z,0
2018-05-29T06:02:32.759Z,0
2018-05-29T06:03:33.377Z,0
2018-05-29T06:04:33.956Z,0
2018-05-29T06:05:34.535Z,0
2018-05-29T06:06:35.113Z,0
2018-05-29T06:07:35.788Z,0
2018-05-29T06:08:36.414Z,0
2018-05-29T06:09:37.042Z,0
2018-05-29T06:10:37.622Z,0
2018-05-29T06:11:38.202Z,0
2018-05-29T06:12:38.779Z,0
2018-05-29T06:13:39.357Z,0
2018-05-29T06:14:39.934Z,0
2018-05-29T06:15:40.510Z,0
2018-05-29T06:16:41.089Z,0
2018-05-29T06:17:41.668Z,0
2018-05-29T06:18:42.248Z,0
2018-05-29T06:19:42.827Z,0
2018-05-29T06:20:43.409Z,0
2018-05-29T06:21:43.987Z,0
2018-05-29T06:22:44.566Z,0
2018-05-29T06:23:45.196Z,0
2018-05-29T06:24:45.774Z,0
2018-05-29T06:25:46.404Z,0
2018-05-29T06:26:46.981Z,0
2018-05-29T06:27:47.560Z,0
2018-05-29T06:28:48.139Z,0
2018-05-29T06:29:48.772Z,0
2018-05-29T06:30:49.345Z,0
2018-05-29T06:31:49.925Z,0
2018-05-29T06:32:50.565Z,0
2018-05-29T06:33:51.121Z,0
2018-05-29T06:34:51.701Z,0
2018-05-29T06:35:52.278Z,0
2018-05-29T06:36:52.862Z,0
2018-05-29T06:37:53.434Z,0
2018-05-29T06:38:54.011Z,0
2018-05-29T06:39:54.587Z,0
2018-05-29T06:40:55.215Z,0
2018-05-29T06:41:55.793Z,0
2018-05-29T06:42:56.380Z,0
2018-05-29T06:43:56.994Z,0
2018-05-29T06:44:57.682Z,0
2018-05-29T06:45:58.203Z,0
2018-05-29T06:46:58.834Z,0
2018-05-29T06:47:59.411Z,0
2018-05-29T06:48:59.990Z,0
2018-05-29T06:50:00.564Z,0
2018-05-29T06:51:01.142Z,0
2018-05-29T06:52:01.719Z,0
2018-05-29T06:53:02.298Z,0
2018-05-29T06:54:02.878Z,0
2018-05-29T06:55:03.459Z,0
2018-05-29T06:56:04.056Z,0
2018-05-29T06:57:04.618Z,0
2018-05-29T06:58:05.197Z,0
2018-05-29T06:59:05.775Z,0
2018-05-29T07:00:06.354Z,0
2018-05-29T07:01:06.933Z,8
2018-05-29T07:02:07.513Z,8
2018-05-29T07:03:08.143Z,4
2018-05-29T07:04:08.724Z,4
2018-05-29T07:05:09.299Z,4
2018-05-29T07:06:09.928Z,4
2018-05-29T07:07:11.358Z,4
2018-05-29T07:08:11.938Z,4
2018-05-29T07:09:12.516Z,4
2018-05-29T07:10:13.095Z,4
2018-05-29T07:11:13.674Z,4
2018-05-29T07:12:14.252Z,4
2018-05-29T07:13:14.829Z,4
2018-05-29T07:14:15.407Z,0
2018-05-29T07:15:15.986Z,0
2018-05-29T07:16:16.569Z,0
2018-05-29T07:17:17.139Z,0
2018-05-29T07:18:17.717Z,4
2018-05-29T07:19:18.297Z,4
2018-05-29T07:20:18.877Z,4
2018-05-29T07:21:19.505Z,4
2018-05-29T07:22:20.084Z,4
2018-05-29T07:23:20.660Z,4
2018-05-29T07:24:21.290Z,4
2018-05-29T07:25:21.870Z,4
2018-05-29T07:26:22.449Z,8
2018-05-29T07:27:23.028Z,8
2018-05-29T07:28:23.657Z,4
2018-05-29T07:29:24.235Z,8
2018-05-29T07:30:24.817Z,8
2018-05-29T07:31:25.436Z,8
2018-05-29T07:32:26.014Z,8
2018-05-29T07:33:26.595Z,12
2018-05-29T07:34:27.171Z,8
2018-05-29T07:35:27.748Z,8
2018-05-29T07:36:28.326Z,8
2018-05-29T07:37:28.906Z,12
2018-05-29T07:38:29.539Z,12
2018-05-29T07:39:30.119Z,12
2018-05-29T07:40:30.743Z,8
2018-05-29T07:41:31.322Z,8
2018-05-29T07:42:31.901Z,8
2018-05-29T07:43:32.531Z,8
2018-05-29T07:44:33.109Z,8
2018-05-29T07:45:33.683Z,12
2018-05-29T07:46:34.262Z,12
2018-05-29T07:47:34.840Z,12
2018-05-29T07:48:35.422Z,12
2018-05-29T07:49:36.001Z,12
2018-05-29T07:50:36.580Z,12
2018-05-29T07:51:37.158Z,8
2018-05-29T07:52:37.736Z,8
2018-05-29T07:53:38.317Z,8
2018-05-29T07:54:38.891Z,8
2018-05-29T07:55:39.467Z,8
2018-05-29T07:56:40.096Z,12
2018-05-29T07:57:40.727Z,12
2018-05-29T07:58:41.346Z,8
2018-05-29T07:59:41.924Z,8
2018-05-29T08:00:42.503Z,8
2018-05-29T08:01:43.082Z,8
2018-05-29T08:02:43.712Z,8
2018-05-29T08:03:44.293Z,8
2018-05-29T08:04:44.870Z,8
2018-05-29T08:05:45.445Z,8
2018-05-29T08:06:46.024Z,8
2018-05-29T08:07:46.653Z,8
2018-05-29T08:08:47.185Z,8
2018-05-29T08:09:47.762Z,8
2018-05-29T08:10:48.342Z,8
2018-05-29T08:11:48.922Z,12
2018-05-29T08:12:49.500Z,8
2018-05-29T08:13:50.077Z,8
2018-05-29T08:14:50.654Z,8
2018-05-29T08:15:51.382Z,8
2018-05-29T08:16:52.013Z,8
2018-05-29T08:17:52.591Z,8
2018-05-29T08:18:53.171Z,8
2018-05-29T08:19:53.745Z,8
2018-05-29T08:20:54.376Z,12
2018-05-29T08:21:54.953Z,8
2018-05-29T08:22:55.530Z,8
2018-05-29T08:23:56.109Z,8
2018-05-29T08:24:56.686Z,8
2018-05-29T08:25:57.264Z,12
2018-05-29T08:26:57.842Z,12
2018-05-29T08:27:58.420Z,12
2018-05-29T08:28:58.998Z,12
2018-05-29T08:29:59.575Z,12
2018-05-29T08:31:00.313Z,8
2018-05-29T08:32:00.888Z,8
2018-05-29T08:33:01.465Z,8
2018-05-29T08:34:02.045Z,8
2018-05-29T08:35:02.624Z,8
2018-05-29T08:36:03.392Z,8
2018-05-29T08:37:04.120Z,8
2018-05-29T08:38:04.699Z,12
2018-05-29T08:39:05.282Z,12
2018-05-29T08:40:05.860Z,12
2018-05-29T08:41:06.439Z,12
2018-05-29T08:42:07.019Z,12
2018-05-29T08:43:07.597Z,8
2018-05-29T08:44:08.176Z,12
2018-05-29T08:45:08.756Z,12
2018-05-29T08:46:09.352Z,12
2018-05-29T08:47:09.914Z,12
2018-05-29T08:48:10.492Z,8
2018-05-29T08:49:11.119Z,12
2018-05-29T08:50:11.697Z,12
2018-05-29T08:51:12.276Z,12
2018-05-29T08:52:12.904Z,8
2018-05-29T08:53:13.483Z,8
2018-05-29T08:54:14.060Z,8
2018-05-29T08:55:14.641Z,12
2018-05-29T08:56:15.262Z,8
2018-05-29T08:57:15.802Z,8
2018-05-29T08:58:16.573Z,8
2018-05-29T08:59:17.151Z,8
2018-05-29T09:00:17.731Z,8
2018-05-29T09:01:18.307Z,8
2018-05-29T09:02:18.884Z,8
2018-05-29T09:03:19.465Z,8
2018-05-29T09:04:20.063Z,8
2018-05-29T09:05:20.660Z,8
2018-05-29T09:06:21.287Z,8
2018-05-29T09:07:21.867Z,8
2018-05-29T09:08:22.498Z,4
2018-05-29T09:09:23.075Z,8
2018-05-29T09:10:23.654Z,8
2018-05-29T09:11:24.234Z,8
2018-05-29T09:12:24.815Z,8
2018-05-29T09:13:25.397Z,12
2018-05-29T09:14:25.975Z,12
2018-05-29T09:15:26.552Z,8
2018-05-29T09:16:27.130Z,8
2018-05-29T09:17:27.708Z,8
2018-05-29T09:18:28.285Z,8
2018-05-29T09:19:28.866Z,8
2018-05-29T09:20:29.443Z,8
2018-05-29T09:21:30.072Z,12
2018-05-29T09:22:30.653Z,12
2018-05-29T09:23:31.273Z,12
2018-05-29T09:24:31.853Z,12
2018-05-29T09:25:32.483Z,12
2018-05-29T09:26:33.062Z,12
2018-05-29T09:27:33.691Z,12
2018-05-29T09:28:34.270Z,12
2018-05-29T09:29:34.856Z,12
2018-05-29T09:30:35.433Z,12
2018-05-29T09:31:36.014Z,12
2018-05-29T09:32:36.597Z,12
2018-05-29T09:33:37.179Z,12
2018-05-29T09:34:37.762Z,12
2018-05-29T09:35:38.339Z,8
2018-05-29T09:36:38.925Z,12
2018-05-29T09:37:39.541Z,12
2018-05-29T09:38:40.122Z,12
2018-05-29T09:39:40.702Z,8
2018-05-29T09:40:41.323Z,12
2018-05-29T09:41:41.902Z,12
2018-05-29T09:42:47.535Z,12
2018-05-29T09:43:48.116Z,12
2018-05-29T09:44:48.802Z,16
2018-05-29T09:45:49.383Z,12
2018-05-29T09:46:50.008Z,16
2018-05-29T09:47:50.588Z,16
2018-05-29T09:48:51.166Z,16
2018-05-29T09:49:51.744Z,16
2018-05-29T09:50:52.327Z,16
2018-05-29T09:51:52.950Z,16
2018-05-29T09:52:53.533Z,20
2018-05-29T09:53:54.147Z,20
2018-05-29T09:54:54.730Z,20
2018-05-29T09:55:55.312Z,20
2018-05-29T09:56:55.892Z,20
2018-05-29T09:57:56.474Z,20
2018-05-29T09:58:57.053Z,20
2018-05-29T09:59:57.631Z,20
2018-05-29T10:00:58.213Z,20
2018-05-29T10:01:58.791Z,24
2018-05-29T10:02:59.420Z,20
2018-05-29T10:04:00.048Z,20
2018-05-29T10:05:00.726Z,20
2018-05-29T10:06:01.306Z,24
2018-05-29T10:07:01.912Z,20
2018-05-29T10:08:02.466Z,24
2018-05-29T10:09:03.042Z,24
2018-05-29T10:10:03.621Z,24
2018-05-29T10:11:04.202Z,20
2018-05-29T10:12:04.783Z,20
2018-05-29T10:13:05.364Z,20
2018-05-29T10:14:05.943Z,20
2018-05-29T10:15:06.523Z,20
2018-05-29T10:16:07.161Z,24
2018-05-29T10:17:07.793Z,20
2018-05-29T10:18:08.313Z,20
2018-05-29T10:19:08.891Z,20
2018-05-29T10:20:09.471Z,20
2018-05-29T10:21:10.100Z,20
2018-05-29T10:22:10.680Z,16
2018-05-29T10:23:11.260Z,20
2018-05-29T10:24:11.889Z,20
2018-05-29T10:25:12.572Z,20
2018-05-29T10:26:13.151Z,20
2018-05-29T10:27:13.775Z,20
2018-05-29T10:28:14.357Z,20
2018-05-29T10:29:14.934Z,16
2018-05-29T10:30:15.517Z,16
2018-05-29T10:31:16.098Z,16
2018-05-29T10:32:16.680Z,16
2018-05-29T10:33:17.258Z,16
2018-05-29T10:34:17.839Z,16
2018-05-29T10:35:18.417Z,16
2018-05-29T10:36:18.995Z,16
2018-05-29T10:37:19.573Z,16
2018-05-29T10:38:20.152Z,16
2018-05-29T10:39:20.738Z,16
2018-05-29T10:40:21.460Z,16
2018-05-29T10:41:21.995Z,16
2018-05-29T10:42:22.577Z,16
2018-05-29T10:43:23.205Z,16
2018-05-29T10:44:23.784Z,12
2018-05-29T10:45:24.413Z,16
2018-05-29T10:46:24.991Z,16
2018-05-29T10:47:25.572Z,16
2018-05-29T10:48:26.155Z,16
2018-05-29T10:49:26.731Z,16
2018-05-29T10:50:27.311Z,16
2018-05-29T10:51:27.890Z,16
2018-05-29T10:52:28.601Z,16
2018-05-29T10:53:29.150Z,16
2018-05-29T10:54:29.730Z,12
2018-05-29T10:55:30.314Z,16
2018-05-29T10:56:30.942Z,16
2018-05-29T10:57:31.522Z,16
2018-05-29T10:58:32.103Z,16
2018-05-29T10:59:32.683Z,16
2018-05-29T11:00:33.266Z,16
2018-05-29T11:01:33.895Z,16
2018-05-29T11:02:34.476Z,12
2018-05-29T11:03:35.057Z,12
2018-05-29T11:04:35.688Z,12
2018-05-29T11:05:36.312Z,12
2018-05-29T11:06:36.895Z,16
2018-05-29T11:07:37.475Z,16
2018-05-29T11:08:38.055Z,16
2018-05-29T11:09:38.634Z,16
2018-05-29T11:10:39.218Z,16
2018-05-29T11:11:39.836Z,16
2018-05-29T11:12:40.413Z,16
2018-05-29T11:13:40.994Z,16
2018-05-29T11:14:41.574Z,16
2018-05-29T11:15:42.155Z,16
2018-05-29T11:16:42.785Z,16
2018-05-29T11:17:43.365Z,20
2018-05-29T11:18:43.949Z,16
2018-05-29T11:19:44.622Z,16
2018-05-29T11:20:45.202Z,16
2018-05-29T11:21:45.833Z,20
2018-05-29T11:22:46.411Z,20
2018-05-29T11:23:46.992Z,16
2018-05-29T11:24:47.568Z,16
2018-05-29T11:25:48.147Z,16
2018-05-29T11:26:48.727Z,20
2018-05-29T11:27:49.307Z,20
2018-05-29T11:28:49.891Z,16
2018-05-29T11:29:50.471Z,20
2018-05-29T11:30:51.101Z,20
2018-05-29T11:31:51.683Z,20
2018-05-29T11:32:52.261Z,20
2018-05-29T11:33:52.839Z,20
2018-05-29T11:34:53.419Z,24
2018-05-29T11:35:53.997Z,20
2018-05-29T11:36:54.580Z,24
2018-05-29T11:37:55.407Z,24
2018-05-29T11:38:55.983Z,24
2018-05-29T11:39:56.567Z,24
2018-05-29T11:40:57.242Z,24
2018-05-29T11:41:57.823Z,28
2018-05-29T11:42:58.402Z,24
2018-05-29T11:43:58.984Z,28
2018-05-29T11:44:59.565Z,28
2018-05-29T11:46:00.186Z,28
2018-05-29T11:47:00.765Z,28
2018-05-29T11:48:06.396Z,28
2018-05-29T11:49:06.974Z,28
2018-05-29T11:50:07.557Z,28
2018-05-29T11:51:08.132Z,28
2018-05-29T11:52:08.712Z,28
2018-05-29T11:53:09.291Z,32
2018-05-29T11:54:09.923Z,28
2018-05-29T11:55:10.503Z,28
2018-05-29T11:56:11.083Z,28
2018-05-29T11:57:11.716Z,28
2018-05-29T11:58:12.295Z,28
2018-05-29T11:59:12.875Z,28
2018-05-29T12:00:13.509Z,28
2018-05-29T12:01:19.230Z,28
2018-05-29T12:02:19.810Z,28
2018-05-29T12:03:20.393Z,24
2018-05-29T12:04:20.972Z,24
2018-05-29T12:05:21.553Z,24
2018-05-29T12:06:22.135Z,24
2018-05-29T12:07:22.715Z,24
2018-05-29T12:08:23.301Z,24
2018-05-29T12:09:23.879Z,24
2018-05-29T12:10:24.505Z,24
2018-05-29T12:11:25.086Z,24
2018-05-29T12:12:25.668Z,24
2018-05-29T12:13:26.342Z,20
2018-05-29T12:14:26.921Z,24
2018-05-29T12:15:27.500Z,20
2018-05-29T12:16:28.082Z,20
2018-05-29T12:17:28.656Z,20
2018-05-29T12:18:29.287Z,20
2018-05-29T12:19:29.868Z,20
2018-05-29T12:20:30.451Z,24
2018-05-29T12:21:31.027Z,20
2018-05-29T12:22:31.606Z,20
2018-05-29T12:23:32.185Z,20
2018-05-29T12:24:32.766Z,20
2018-05-29T12:25:33.346Z,20
2018-05-29T12:26:33.930Z,20
2018-05-29T12:27:34.512Z,20
2018-05-29T12:28:35.140Z,20
2018-05-29T12:29:35.721Z,20
2018-05-29T12:30:36.301Z,20
2018-05-29T12:31:36.981Z,20
2018-05-29T12:32:37.562Z,20
2018-05-29T12:33:38.142Z,20
2018-05-29T12:34:38.723Z,20
2018-05-29T12:35:39.346Z,16
2018-05-29T12:36:39.927Z,20
2018-05-29T12:37:40.508Z,20
2018-05-29T12:38:41.092Z,20
2018-05-29T12:39:41.673Z,20
2018-05-29T12:40:42.254Z,20
2018-05-29T12:41:42.832Z,20
2018-05-29T12:42:43.415Z,20
2018-05-29T12:43:43.996Z,20
2018-05-29T12:44:44.628Z,20
2018-05-29T12:45:45.301Z,20
2018-05-29T12:46:45.885Z,20
2018-05-29T12:47:46.514Z,24
2018-05-29T12:48:47.097Z,24
2018-05-29T12:49:47.679Z,24
2018-05-29T12:50:48.256Z,24
2018-05-29T12:51:48.834Z,24
2018-05-29T12:52:49.414Z,20
2018-05-29T12:53:49.997Z,24
2018-05-29T12:54:50.577Z,20
2018-05-29T12:55:51.158Z,20
2018-05-29T12:56:51.736Z,20
2018-05-29T12:57:52.315Z,20
2018-05-29T12:58:52.898Z,20
2018-05-29T12:59:53.524Z,20
2018-05-29T13:00:54.105Z,20
2018-05-29T13:01:54.689Z,20
2018-05-29T13:02:55.268Z,20
2018-05-29T13:03:55.893Z,20
2018-05-29T13:04:56.473Z,20
2018-05-29T13:05:57.055Z,20
2018-05-29T13:06:57.636Z,20
2018-05-29T13:07:58.220Z,20
2018-05-29T13:08:58.797Z,20
2018-05-29T13:09:59.376Z,16
2018-05-29T13:10:59.958Z,16
2018-05-29T13:12:00.586Z,16
2018-05-29T13:13:01.164Z,16
2018-05-29T13:14:01.749Z,20
2018-05-29T13:15:02.369Z,20
2018-05-29T13:16:02.954Z,20
2018-05-29T13:17:03.533Z,16
2018-05-29T13:18:04.113Z,20
2018-05-29T13:19:04.694Z,20
2018-05-29T13:20:05.278Z,20
2018-05-29T13:21:05.903Z,20
2018-05-29T13:22:06.530Z,20
2018-05-29T13:23:07.108Z,20
2018-05-29T13:24:07.689Z,20
2018-05-29T13:25:08.271Z,20
2018-05-29T13:26:08.901Z,20
2018-05-29T13:27:09.525Z,20
2018-05-29T13:28:10.178Z,20
2018-05-29T13:29:10.690Z,20
2018-05-29T13:30:11.269Z,20
2018-05-29T13:31:11.849Z,24
2018-05-29T13:32:12.432Z,20
2018-05-29T13:33:13.052Z,20
2018-05-29T13:34:13.633Z,24
2018-05-29T13:35:14.250Z,24
2018-05-29T13:36:14.798Z,24
2018-05-29T13:37:15.419Z,28
2018-05-29T13:38:15.996Z,28
2018-05-29T13:39:16.582Z,28
2018-05-29T13:40:17.157Z,28
2018-05-29T13:41:17.786Z,28
2018-05-29T13:42:18.366Z,28
2018-05-29T13:43:18.945Z,32
2018-05-29T13:44:19.577Z,32
2018-05-29T13:45:20.210Z,32
2018-05-29T13:46:20.788Z,28
2018-05-29T13:47:21.373Z,28
2018-05-29T13:48:21.994Z,28
2018-05-29T13:49:22.575Z,28
2018-05-29T13:50:23.156Z,32
2018-05-29T13:51:23.736Z,28
2018-05-29T13:52:24.316Z,28
2018-05-29T13:53:24.899Z,32
2018-05-29T13:54:25.517Z,28
2018-05-29T13:55:26.100Z,28
2018-05-29T13:56:26.726Z,32
2018-05-29T13:57:27.259Z,28
2018-05-29T13:58:27.838Z,28
2018-05-29T13:59:28.417Z,28
2018-05-29T14:00:29.047Z,28
2018-05-29T14:01:29.627Z,28
2018-05-29T14:02:30.258Z,28
2018-05-29T14:03:30.841Z,28
2018-05-29T14:04:31.421Z,28
2018-05-29T14:05:32.050Z,28
2018-05-29T14:06:32.629Z,32
2018-05-29T14:07:33.207Z,28
2018-05-29T14:08:33.789Z,28
2018-05-29T14:09:34.370Z,28
2018-05-29T14:10:34.955Z,28
2018-05-29T14:11:35.532Z,28
2018-05-29T14:12:36.112Z,28
2018-05-29T14:13:36.692Z,24
2018-05-29T14:14:37.273Z,28
2018-05-29T14:15:37.904Z,24
2018-05-29T14:16:38.635Z,24
2018-05-29T14:17:39.216Z,20
2018-05-29T14:18:39.799Z,20
2018-05-29T14:19:40.376Z,24
2018-05-29T14:20:40.958Z,20
2018-05-29T14:21:41.589Z,20
2018-05-29T14:22:42.170Z,24
2018-05-29T14:23:42.753Z,24
2018-05-29T14:24:43.384Z,20
2018-05-29T14:25:43.964Z,20
2018-05-29T14:26:44.545Z,20
2018-05-29T14:27:45.125Z,20
2018-05-29T14:28:45.705Z,20
2018-05-29T14:29:46.283Z,20
2018-05-29T14:30:46.914Z,20
2018-05-29T14:31:47.495Z,20
2018-05-29T14:32:48.074Z,20
2018-05-29T14:33:48.653Z,20
2018-05-29T14:34:49.232Z,24
2018-05-29T14:35:49.853Z,20
2018-05-29T14:36:50.432Z,20
2018-05-29T14:37:51.166Z,24
2018-05-29T14:38:51.742Z,24
2018-05-29T14:39:52.323Z,20
2018-05-29T14:40:52.905Z,20
2018-05-29T14:41:53.540Z,24
2018-05-29T14:42:54.121Z,24